Disclaimer

Please do not use the information listed here in-flight or in-navigation, as they are not provided to us by the airports but are provided by volunteers, so they might be outdated.

Search


Regions


Airport information page

Radio informations:
Tower (TWR) - 118.3 MHz
Aerodrome flight information system (AFIS) - 6586 MHz
A/G VOICE RDO - 122.6 MHz

Airport informations:
Latitude: 09° 46' 02.40" N
Longitude: 001° 05' 28.50" E
Elevation: 1515 feet - 462 meters
Operating hours: Remarks
Operating agency: Military-civil joint use airport
Timezone: UTC 0
Fuel: Unknown fuel type or whether there is any fuel.

Runway information:
03/21 - 8202 x 148 feet< - >2500 x 45 meters

Recent METARs:
DXNG 131800Z 03004KT CAVOK 28/12 Q1011 NOSIG
DXNG 131800Z 03004KT CAVOK 28/12 Q1011 NOSIG
DXNG 131900Z 03004KT CAVOK 25/12 Q1012 NOSIG

Airport on the map: